Time;durP1;ratioP1;P1;durP2;ratioP2;P2;SDS_P1;SDS_P2;PMS_P1;PMS_P2;Temp;Humidity;BMP_temperature;BMP_pressure;BME280_temperature;BME280_humidity;BME280_pressure;Samples;Min_cycle;Max_cycle;Signal;HPM_P1;HPM_P2
2023/11/03 00:00:00;;;;;;;9.60;3.70;;;;;;;8.06;63.42;100138.14;105448;1255;60397;-59
2023/11/03 00:02:30;;;;;;;10.90;5.80;;;;;;;7.99;63.37;100138.68;105908;1254;65583;-59
2023/11/03 00:05:00;;;;;;;11.10;4.60;;;;;;;7.92;63.41;100135.11;105209;1259;60355;-59
2023/11/03 00:07:30;;;;;;;13.20;5.00;;;;;;;7.87;63.59;100129.39;105803;1259;63735;-58
2023/11/03 00:09:58;;;;;;;10.40;4.70;;;;;;;7.83;63.94;100126.02;106049;1254;60394;-58
2023/11/03 00:12:25;;;;;;;7.80;3.00;;;;;;;7.83;63.89;100125.85;105253;1260;60513;-57
2023/11/03 00:14:53;;;;;;;8.70;4.00;;;;;;;7.86;63.72;100129.14;105414;1254;63697;-58
2023/11/03 00:17:20;;;;;;;7.00;2.80;;;;;;;7.88;63.91;100131.20;105346;1260;61994;-58
2023/11/03 00:19:48;;;;;;;11.80;8.70;;;;;;;7.94;63.95;100133.98;105267;1254;64288;-59
2023/11/03 00:22:17;;;;;;;7.30;3.30;;;;;;;7.97;63.99;100139.49;105615;1254;60529;-59
2023/11/03 00:24:44;;;;;;;10.80;4.50;;;;;;;8.01;64.15;100144.80;106742;1254;60383;-59
2023/11/03 00:27:14;;;;;;;12.70;8.20;;;;;;;8.03;64.17;100145.35;105556;1254;64872;-58
2023/11/03 00:29:41;;;;;;;7.40;4.00;;;;;;;8.04;64.07;100141.29;105818;1254;61329;-58
2023/11/03 00:32:09;;;;;;;8.10;4.50;;;;;;;8.03;63.94;100141.71;105695;1254;63655;-57
2023/11/03 00:34:38;;;;;;;8.40;3.80;;;;;;;8.00;63.83;100144.64;106186;1254;60514;-58
2023/11/03 00:37:06;;;;;;;6.20;3.60;;;;;;;7.97;63.75;100145.92;105728;1258;60505;-56
2023/11/03 00:39:34;;;;;;;8.30;3.60;;;;;;;7.92;63.76;100144.74;105572;1255;71756;-57
2023/11/03 00:42:03;;;;;;;9.10;3.40;;;;;;;7.90;63.87;100140.35;106367;1261;60326;-57
2023/11/03 00:44:32;;;;;;;12.50;8.80;;;;;;;7.88;63.95;100140.65;105165;1259;62753;-58
2023/11/03 00:47:00;;;;;;;9.60;2.80;;;;;;;7.87;63.94;100142.28;105180;1257;60589;-57
2023/11/03 00:49:29;;;;;;;7.10;3.00;;;;;;;7.93;64.05;100142.91;105192;1254;60381;-57
2023/11/03 00:51:57;;;;;;;5.90;2.50;;;;;;;8.01;63.98;100141.63;106043;1254;64881;-57
2023/11/03 00:54:24;;;;;;;7.20;2.20;;;;;;;8.08;63.87;100140.63;105645;1254;61880;-57
2023/11/03 00:56:52;;;;;;;9.10;3.50;;;;;;;8.14;63.91;100140.88;105246;1259;63776;-57
2023/11/03 00:59:19;;;;;;;7.30;2.60;;;;;;;8.21;64.01;100143.67;105183;1253;60568;-56
2023/11/03 01:01:47;;;;;;;9.70;3.80;;;;;;;8.29;64.15;100145.71;105268;1254;60430;-56
2023/11/03 01:04:14;;;;;;;11.70;8.90;;;;;;;8.34;64.35;100143.93;105306;1260;65558;-57
2023/11/03 01:06:42;;;;;;;6.30;3.10;;;;;;;8.38;64.57;100142.25;105174;1259;60440;-56
2023/11/03 01:09:10;;;;;;;7.70;3.40;;;;;;;8.38;64.59;100145.91;105026;1260;64161;-59
2023/11/03 01:11:37;;;;;;;9.00;4.50;;;;;;;8.34;64.45;100150.39;106285;1254;60492;-55
2023/11/03 01:14:05;;;;;;;11.30;8.60;;;;;;;8.30;64.36;100148.99;106535;1255;60617;-57
2023/11/03 01:16:41;;;;;;;6.20;3.00;;;;;;;8.24;64.34;100150.64;105711;1254;65251;-56
2023/11/03 01:19:09;;;;;;;6.70;2.70;;;;;;;8.22;64.19;100149.23;105493;1260;60516;-55
2023/11/03 01:21:39;;;;;;;6.40;2.70;;;;;;;8.23;64.07;100148.42;106246;1257;63671;-57
2023/11/03 01:24:10;;;;;;;5.70;2.20;;;;;;;8.25;64.09;100153.87;105491;1260;60555;-56
2023/11/03 01:26:38;;;;;;;10.60;7.70;;;;;;;8.29;64.06;100157.27;105804;1259;60510;-56
2023/11/03 01:29:07;;;;;;;9.50;4.70;;;;;;;8.32;64.19;100156.48;105733;1254;64859;-56
2023/11/03 01:31:36;;;;;;;11.30;4.30;;;;;;;8.30;64.34;100153.81;105763;1260;60565;-58
2023/11/03 01:34:07;;;;;;;6.10;3.50;;;;;;;8.28;64.32;100152.58;105527;1259;62570;-56
2023/11/03 01:36:35;;;;;;;12.00;7.90;;;;;;;8.24;64.33;100149.56;105718;1254;60904;-57
2023/11/03 01:39:08;;;;;;;7.50;3.50;;;;;;;8.21;64.29;100148.02;105878;1255;60361;-58
2023/11/03 01:41:37;;;;;;;9.10;3.80;;;;;;;8.15;64.21;100144.94;105817;1260;64856;-56
2023/11/03 01:44:06;;;;;;;7.80;2.90;;;;;;;8.09;64.33;100145.80;105577;1259;61378;-57
2023/11/03 01:46:35;;;;;;;7.20;3.10;;;;;;;8.04;64.32;100146.19;105826;1259;64156;-51
2023/11/03 01:49:05;;;;;;;9.70;3.60;;;;;;;8.00;64.19;100145.93;105695;1254;60452;-56
2023/11/03 01:51:33;;;;;;;7.50;2.70;;;;;;;7.94;63.99;100146.54;102882;1254;3991267;-56
2023/11/03 01:56:05;;;;;;;7.50;3.50;;;;;;;7.53;65.04;100152.61;102833;1295;600612;-59
2023/11/03 01:58:33;;;;;;;6.60;2.20;;;;;;;7.80;64.07;100152.97;104847;1270;59308;-57
2023/11/03 02:01:02;;;;;;;6.60;3.00;;;;;;;7.84;64.03;100156.30;104954;1280;59314;-58
2023/11/03 02:03:29;;;;;;;6.70;2.80;;;;;;;7.87;64.16;100159.05;104452;1273;62035;-57
2023/11/03 02:05:57;;;;;;;6.30;3.30;;;;;;;7.92;64.38;100161.86;105712;1267;61440;-56
2023/11/03 02:08:25;;;;;;;7.40;2.80;;;;;;;8.00;64.84;100161.62;105368;1269;63748;-58
2023/11/03 02:10:52;;;;;;;7.20;3.00;;;;;;;8.09;65.08;100156.95;104188;1269;3295589;-56
2023/11/03 02:13:20;;;;;;;8.20;2.60;;;;;;;8.17;65.16;100158.11;104812;1264;59262;-58
2023/11/03 02:15:47;;;;;;;9.60;3.80;;;;;;;8.20;65.13;100161.23;104645;1268;62102;-56
2023/11/03 02:18:17;;;;;;;10.90;7.20;;;;;;;8.18;65.18;100161.73;105986;1263;60312;-58
2023/11/03 02:20:45;;;;;;;6.60;3.00;;;;;;;8.16;65.07;100163.64;105097;1269;63960;-57
2023/11/03 02:23:12;;;;;;;7.20;3.30;;;;;;;8.13;65.10;100157.85;104702;1269;61070;-57
2023/11/03 02:25:40;;;;;;;7.40;3.40;;;;;;;8.11;65.04;100159.27;104737;1271;59738;-59
2023/11/03 02:28:07;;;;;;;9.80;3.50;;;;;;;8.07;65.08;100160.95;104725;1266;64159;-57
2023/11/03 02:30:35;;;;;;;7.80;3.20;;;;;;;8.02;65.04;100157.96;104995;1268;61570;-59
2023/11/03 02:33:03;;;;;;;13.20;8.50;;;;;;;7.98;65.16;100161.10;105621;1264;63782;-58
2023/11/03 02:35:30;;;;;;;9.00;3.20;;;;;;;7.95;65.11;100162.30;104730;1270;59701;-58
2023/11/03 02:37:58;;;;;;;6.00;2.40;;;;;;;7.98;65.05;100159.66;105248;1268;59762;-57
2023/11/03 02:40:26;;;;;;;5.90;2.20;;;;;;;8.03;64.88;100156.41;105202;1269;64131;-56
2023/11/03 02:42:54;;;;;;;5.30;1.80;;;;;;;8.05;64.84;100156.73;106039;1269;61936;-57
2023/11/03 02:45:21;;;;;;;6.20;2.40;;;;;;;8.09;64.82;100154.54;105557;1264;63742;-56
2023/11/03 02:47:49;;;;;;;10.30;7.10;;;;;;;8.13;64.67;100154.95;104870;1264;59654;-56
2023/11/03 02:50:16;;;;;;;7.80;3.00;;;;;;;8.14;64.72;100152.36;104882;1266;59563;-56
2023/11/03 02:52:44;;;;;;;9.00;3.30;;;;;;;8.13;64.64;100149.66;104970;1267;64590;-54
2023/11/03 02:55:11;;;;;;;12.50;7.90;;;;;;;8.10;64.65;100156.02;105366;1261;60267;-48
2023/11/03 02:57:39;;;;;;;7.30;3.70;;;;;;;8.09;64.62;100158.41;105210;1266;64142;-54
2023/11/03 03:00:07;;;;;;;6.90;3.40;;;;;;;8.08;64.68;100161.77;105132;1261;59857;-57
2023/11/03 03:02:35;;;;;;;13.00;8.80;;;;;;;8.04;64.63;100157.91;105367;1264;59720;-56
2023/11/03 03:05:04;;;;;;;7.80;2.00;;;;;;;8.00;64.75;100155.30;104792;1266;65020;-56
2023/11/03 03:07:31;;;;;;;6.00;1.90;;;;;;;8.03;64.76;100155.83;105030;1267;61323;-56
2023/11/03 03:09:59;;;;;;;6.10;2.40;;;;;;;8.06;64.53;100155.64;104804;1265;63735;-55
2023/11/03 03:12:27;;;;;;;6.00;2.40;;;;;;;8.08;64.50;100153.92;106311;1266;59650;-55
2023/11/03 03:14:54;;;;;;;12.00;8.00;;;;;;;8.12;64.59;100156.60;105446;1265;59669;-55
2023/11/03 03:17:22;;;;;;;5.80;2.60;;;;;;;8.14;64.60;100160.64;104802;1265;64185;-57
2023/11/03 03:19:50;;;;;;;6.10;3.10;;;;;;;8.13;64.67;100159.59;105266;1267;61929;-55
2023/11/03 03:22:17;;;;;;;8.60;3.80;;;;;;;8.12;64.61;100157.59;104793;1266;63891;-56
2023/11/03 03:24:45;;;;;;;8.50;3.20;;;;;;;8.08;64.53;100159.81;104811;1271;59770;-56
2023/11/03 03:27:12;;;;;;;7.80;3.50;;;;;;;8.04;64.46;100156.67;104933;1260;59567;-56
2023/11/03 03:29:40;;;;;;;10.90;7.50;;;;;;;7.97;64.29;100159.25;104710;1260;64069;-55
2023/11/03 03:32:08;;;;;;;6.10;2.40;;;;;;;7.92;64.35;100160.44;105610;1266;61566;-55
2023/11/03 03:34:36;;;;;;;5.40;2.10;;;;;;;7.93;64.16;100151.10;105403;1266;63766;-56
2023/11/03 03:37:04;;;;;;;6.80;1.70;;;;;;;7.97;64.09;100145.92;104850;1266;59954;-56
2023/11/03 03:39:31;;;;;;;6.80;2.30;;;;;;;8.01;64.07;100150.05;105176;1260;59698;-56
2023/11/03 03:41:59;;;;;;;8.40;2.80;;;;;;;8.03;64.00;100152.70;105345;1261;64504;-56
2023/11/03 03:44:27;;;;;;;6.40;3.00;;;;;;;8.04;64.09;100152.32;105370;1264;61366;-55
2023/11/03 03:46:54;;;;;;;12.40;7.80;;;;;;;8.02;64.11;100153.62;104771;1266;64304;-57
2023/11/03 03:49:22;;;;;;;7.60;3.00;;;;;;;7.99;64.10;100152.41;105177;1265;59911;-55
2023/11/03 03:51:49;;;;;;;6.10;2.30;;;;;;;7.96;64.24;100151.23;104967;1266;59311;-57
2023/11/03 03:54:17;;;;;;;7.70;3.50;;;;;;;7.95;64.31;100149.78;104911;1260;62917;-55
2023/11/03 03:56:44;;;;;;;9.00;2.80;;;;;;;7.91;64.45;100147.42;104947;1266;61421;-57
2023/11/03 03:59:12;;;;;;;10.00;3.10;;;;;;;7.87;64.41;100145.31;104794;1264;63778;-56
2023/11/03 04:01:41;;;;;;;6.30;3.10;;;;;;;7.79;64.39;100142.90;105969;1260;59811;-56
2023/11/03 04:04:09;;;;;;;11.80;7.70;;;;;;;7.72;64.42;100140.59;105137;1261;59698;-56
2023/11/03 04:06:37;;;;;;;6.40;2.60;;;;;;;7.68;64.54;100142.66;105206;1261;62913;-56
2023/11/03 04:09:05;;;;;;;6.00;1.90;;;;;;;7.70;64.53;100139.52;104826;1263;61382;-56
2023/11/03 04:11:33;;;;;;;6.00;2.10;;;;;;;7.76;64.51;100138.20;105257;1264;62535;-55
2023/11/03 04:14:00;;;;;;;7.10;2.30;;;;;;;7.82;64.65;100133.29;104737;1264;59525;-56
2023/11/03 04:16:34;;;;;;;5.60;2.00;;;;;;;7.86;64.75;100138.89;105976;1266;60511;-55
2023/11/03 04:19:02;;;;;;;6.00;1.80;;;;;;;7.92;64.81;100141.11;105360;1264;64558;-55
2023/11/03 04:21:30;;;;;;;7.10;2.30;;;;;;;7.97;64.84;100141.92;105836;1264;61487;-54
2023/11/03 04:23:57;;;;;;;11.20;7.60;;;;;;;7.99;65.05;100141.05;105032;1266;63793;-55
2023/11/03 04:26:25;;;;;;;6.80;2.90;;;;;;;8.01;65.15;100140.23;105428;1261;59656;-55
2023/11/03 04:28:53;;;;;;;6.50;2.80;;;;;;;8.01;65.06;100134.84;105383;1257;61476;-55
2023/11/03 04:31:21;;;;;;;5.60;2.50;;;;;;;8.00;64.89;100133.17;104998;1262;64096;-54
2023/11/03 04:33:49;;;;;;;7.30;3.00;;;;;;;7.96;64.87;100135.15;105549;1257;61528;-55
2023/11/03 04:36:18;;;;;;;7.50;3.00;;;;;;;7.93;64.84;100138.23;105240;1261;62644;-56
2023/11/03 04:38:46;;;;;;;11.10;7.50;;;;;;;7.87;64.89;100140.20;105592;1258;59653;-56
2023/11/03 04:41:13;;;;;;;6.10;2.70;;;;;;;7.83;64.78;100142.60;105402;1258;59743;-57
2023/11/03 04:43:43;;;;;;;11.60;7.10;;;;;;;7.83;64.65;100145.56;104978;1271;64171;-56
2023/11/03 04:46:12;;;;;;;5.40;1.80;;;;;;;7.88;64.62;100138.42;107492;1260;60114;-58
2023/11/03 04:48:40;;;;;;;6.50;2.00;;;;;;;7.91;64.37;100133.42;105315;1257;62514;-56
2023/11/03 04:51:08;;;;;;;5.70;2.00;;;;;;;7.94;64.44;100128.86;105634;1261;59682;-55
2023/11/03 04:53:36;;;;;;;11.30;6.70;;;;;;;7.96;64.36;100126.79;106111;1264;59647;-56
2023/11/03 04:56:04;;;;;;;7.70;3.50;;;;;;;7.96;64.38;100131.19;105516;1262;66294;-57
2023/11/03 04:58:32;;;;;;;7.20;3.40;;;;;;;7.94;64.49;100132.55;106168;1263;61469;-55
2023/11/03 05:00:59;;;;;;;5.80;3.00;;;;;;;7.93;64.42;100135.08;104874;1262;64021;-58
2023/11/03 05:03:27;;;;;;;8.80;3.50;;;;;;;7.91;64.36;100137.34;106823;1263;59215;-56
2023/11/03 05:05:55;;;;;;;8.90;3.30;;;;;;;7.86;64.25;100135.03;106630;1257;59723;-57
2023/11/03 05:08:22;;;;;;;7.50;3.00;;;;;;;7.81;64.25;100138.73;105056;1263;64186;-57
2023/11/03 05:10:50;;;;;;;11.40;2.70;;;;;;;7.76;64.42;100137.35;105028;1257;61493;-52
2023/11/03 05:13:17;;;;;;;10.10;2.80;;;;;;;7.71;64.66;100143.46;105267;1257;64476;-54
2023/11/03 05:15:45;;;;;;;9.10;3.40;;;;;;;7.68;64.76;100143.50;105205;1257;59705;-58
2023/11/03 05:18:13;;;;;;;7.80;3.30;;;;;;;7.65;64.87;100143.17;105145;1258;59810;-56
2023/11/03 05:20:41;;;;;;;12.20;7.50;;;;;;;7.68;64.85;100141.60;104916;1258;64074;-55
2023/11/03 05:23:08;;;;;;;7.10;1.80;;;;;;;7.74;64.91;100144.27;105525;1257;61444;-55
2023/11/03 05:25:36;;;;;;;4.80;1.60;;;;;;;7.83;64.88;100147.15;105535;1257;63736;-54
2023/11/03 05:28:04;;;;;;;5.90;1.60;;;;;;;7.91;65.00;100145.87;104853;1263;59736;-57
2023/11/03 05:30:31;;;;;;;6.30;2.10;;;;;;;8.01;65.17;100153.73;106814;1254;59735;-54
2023/11/03 05:32:59;;;;;;;6.20;2.20;;;;;;;8.11;65.27;100152.80;105093;1260;64566;-54
2023/11/03 05:35:28;;;;;;;7.60;3.80;;;;;;;8.18;65.28;100156.48;104841;1254;61362;-48
2023/11/03 05:37:56;;;;;;;13.90;9.10;;;;;;;8.23;65.47;100159.97;105032;1257;62448;-50
2023/11/03 05:40:23;;;;;;;6.10;2.10;;;;;;;8.25;65.50;100156.48;105086;1255;59692;-55
2023/11/03 05:42:51;;;;;;;8.20;2.70;;;;;;;8.26;65.46;100158.85;105191;1254;59659;-56
2023/11/03 05:45:19;;;;;;;7.40;2.80;;;;;;;8.28;65.47;100155.75;105334;1259;64128;-51
2023/11/03 05:47:47;;;;;;;9.90;3.20;;;;;;;8.28;65.71;100152.27;105627;1257;60117;-51
2023/11/03 05:50:16;;;;;;;9.10;2.90;;;;;;;8.29;65.89;100152.69;105261;1254;66502;-54
2023/11/03 05:52:44;;;;;;;10.50;6.70;;;;;;;8.32;66.18;100149.89;105181;1254;59762;-53
2023/11/03 05:55:11;;;;;;;6.60;2.30;;;;;;;8.34;66.33;100146.38;105242;1254;59826;-53
2023/11/03 05:57:39;;;;;;;7.80;2.60;;;;;;;8.42;66.34;100153.01;105228;1254;64572;-56
2023/11/03 06:00:11;;;;;;;9.40;6.80;;;;;;;8.50;66.36;100150.30;105253;1257;60127;-52
2023/11/03 06:02:38;;;;;;;4.40;1.50;;;;;;;8.61;66.57;100144.42;105803;1254;63783;-55
2023/11/03 06:05:07;;;;;;;10.00;6.80;;;;;;;8.72;66.71;100140.08;105658;1254;60485;-54
2023/11/03 06:07:35;;;;;;;8.20;2.30;;;;;;;8.83;66.74;100137.71;106471;1257;60517;-54
2023/11/03 06:10:03;;;;;;;11.30;6.60;;;;;;;8.93;66.87;100137.43;105904;1254;64994;-51
2023/11/03 06:12:31;;;;;;;8.00;3.60;;;;;;;9.01;67.00;100135.91;108093;1252;61309;-56
2023/11/03 06:15:01;;;;;;;7.20;3.00;;;;;;;9.09;67.19;100138.08;104952;1254;66061;-55
2023/11/03 06:17:28;;;;;;;10.00;7.20;;;;;;;9.16;67.09;100132.19;105129;1254;60535;-57
2023/11/03 06:19:56;;;;;;;8.70;2.40;;;;;;;9.21;66.95;100127.38;105194;1254;60370;-57
2023/11/03 06:22:24;;;;;;;5.90;1.90;;;;;;;9.30;66.83;100125.67;106076;1254;63662;-56
2023/11/03 06:24:52;;;;;;;9.90;6.30;;;;;;;9.40;66.56;100121.89;105301;1257;62397;-55
2023/11/03 06:27:20;;;;;;;7.00;2.80;;;;;;;9.49;66.47;100121.31;109073;1253;63687;-56
2023/11/03 06:29:47;;;;;;;10.80;7.00;;;;;;;9.57;66.39;100119.35;109245;1253;58264;-56
2023/11/03 06:32:15;;;;;;;7.90;2.50;;;;;;;9.62;66.41;100119.96;108017;1254;60466;-57
2023/11/03 06:34:42;;;;;;;10.60;7.10;;;;;;;9.68;66.35;100119.83;105314;1254;63634;-57
2023/11/03 06:37:10;;;;;;;8.00;2.40;;;;;;;9.74;66.33;100122.67;105251;1257;61978;-55
2023/11/03 06:39:38;;;;;;;10.60;7.10;;;;;;;9.78;66.29;100119.55;105308;1254;63696;-56
2023/11/03 06:42:06;;;;;;;6.20;2.40;;;;;;;9.82;66.24;100120.59;106561;1254;60546;-56
2023/11/03 06:44:33;;;;;;;11.60;6.40;;;;;;;9.92;65.97;100118.73;105305;1253;60468;-56
2023/11/03 06:47:01;;;;;;;7.20;1.80;;;;;;;10.03;65.88;100112.61;106858;1253;65310;-58
2023/11/03 06:49:28;;;;;;;9.30;6.10;;;;;;;10.14;65.67;100109.98;106680;1254;61394;-58
2023/11/03 06:51:56;;;;;;;8.00;2.60;;;;;;;10.25;65.65;100105.58;105120;1260;63730;-56
2023/11/03 06:54:24;;;;;;;10.40;6.40;;;;;;;10.33;65.52;100104.02;105290;1254;60697;-57
2023/11/03 06:56:53;;;;;;;6.00;2.50;;;;;;;10.39;65.25;100101.58;109164;1254;58254;-56
2023/11/03 06:59:21;;;;;;;11.10;7.10;;;;;;;10.46;65.04;100099.81;106111;1256;64913;-56
2023/11/03 07:01:49;;;;;;;6.60;2.40;;;;;;;10.51;64.83;100104.48;105055;1257;60537;-58
2023/11/03 07:04:17;;;;;;;15.70;7.30;;;;;;;10.54;64.66;100106.81;106716;1254;63758;-60
2023/11/03 07:06:45;;;;;;;10.90;6.10;;;;;;;10.57;64.59;100107.79;105386;1256;60555;-56
2023/11/03 07:09:13;;;;;;;7.40;2.40;;;;;;;10.66;64.45;100103.73;106164;1256;60431;-58
2023/11/03 07:11:40;;;;;;;9.90;6.50;;;;;;;10.78;64.28;100106.56;105127;1254;64891;-60
2023/11/03 07:14:08;;;;;;;6.10;1.80;;;;;;;10.87;64.18;100107.75;105765;1257;60895;-60
2023/11/03 07:16:47;;;;;;;11.20;6.20;;;;;;;10.94;63.98;100113.14;105839;1254;63733;-57
2023/11/03 07:19:15;;;;;;;9.60;6.20;;;;;;;10.99;63.99;100113.08;105633;1253;60402;-58
2023/11/03 07:21:53;;;;;;;10.20;6.40;;;;;;;11.04;63.99;100113.11;106162;1253;60552;-56
2023/11/03 07:24:23;;;;;;;7.50;3.40;;;;;;;11.10;63.81;100111.89;105381;1254;64898;-57
2023/11/03 07:26:51;;;;;;;9.30;5.70;;;;;;;11.13;63.50;100108.46;105426;1256;61681;-54
2023/11/03 07:29:18;;;;;;;9.00;5.70;;;;;;;11.17;63.50;100107.11;105893;1252;64291;-56
2023/11/03 07:31:46;;;;;;;6.30;2.10;;;;;;;11.24;63.50;100111.36;105295;1255;60499;-59
2023/11/03 07:34:14;;;;;;;8.40;5.20;;;;;;;11.34;63.41;100115.83;105349;1256;60357;-61
2023/11/03 07:36:42;;;;;;;8.80;5.90;;;;;;;11.45;63.36;100117.65;105466;1254;65354;-59
2023/11/03 07:39:11;;;;;;;9.50;5.50;;;;;;;11.53;63.17;100116.20;106589;1254;61902;-56
2023/11/03 07:41:38;;;;;;;8.10;5.40;;;;;;;11.60;62.86;100116.83;105869;1257;63675;-57
2023/11/03 07:44:07;;;;;;;9.20;5.50;;;;;;;11.67;62.56;100115.85;107135;1254;60540;-58
2023/11/03 07:46:35;;;;;;;8.40;5.20;;;;;;;11.71;62.03;100115.55;105291;1254;60508;-60
2023/11/03 07:49:03;;;;;;;6.00;2.60;;;;;;;11.77;61.87;100117.88;105800;1254;63733;-57
2023/11/03 07:51:31;;;;;;;6.90;4.00;;;;;;;11.88;61.46;100118.98;105345;1258;61418;-58
2023/11/03 07:53:58;;;;;;;9.70;5.00;;;;;;;11.99;61.17;100121.73;105331;1253;63772;-57
2023/11/03 07:56:28;;;;;;;7.50;4.40;;;;;;;12.11;60.92;100121.88;105324;1254;60379;-59
2023/11/03 07:59:03;;;;;;;7.10;4.30;;;;;;;12.22;60.52;100123.14;105877;1254;60626;-59
2023/11/03 08:01:31;;;;;;;7.90;4.50;;;;;;;12.33;60.29;100126.90;106386;1253;63617;-61
2023/11/03 08:03:58;;;;;;;6.90;3.60;;;;;;;12.41;59.67;100129.64;105284;1254;61335;-56
2023/11/03 08:06:27;;;;;;;7.50;3.90;;;;;;;12.48;59.04;100130.45;105531;1253;71509;-58
2023/11/03 08:08:55;;;;;;;8.20;4.50;;;;;;;12.53;58.59;100128.05;105480;1254;60959;-60
2023/11/03 08:11:22;;;;;;;6.70;3.60;;;;;;;12.58;58.08;100123.20;106438;1253;60609;-58
2023/11/03 08:13:50;;;;;;;6.50;3.70;;;;;;;12.62;57.87;100118.58;105265;1254;65031;-60
2023/11/03 08:16:18;;;;;;;6.90;3.70;;;;;;;12.66;57.56;100112.77;106813;1253;60552;-58
2023/11/03 08:18:46;;;;;;;6.40;3.40;;;;;;;12.74;57.08;100109.85;106736;1254;63672;-64
2023/11/03 08:21:15;;;;;;;6.90;3.50;;;;;;;12.85;56.65;100111.49;107325;1253;60536;-61
2023/11/03 08:23:42;;;;;;;7.90;3.90;;;;;;;12.93;56.37;100108.51;106352;1256;60366;-51
2023/11/03 08:26:11;;;;;;;7.50;3.40;;;;;;;12.99;56.22;100107.19;105305;1254;63776;-54
2023/11/03 08:28:38;;;;;;;7.90;3.40;;;;;;;13.05;55.80;100106.82;105406;1257;61900;-54
2023/11/03 08:31:06;;;;;;;8.00;3.50;;;;;;;13.11;55.61;100105.74;105576;1254;62526;-55
2023/11/03 08:33:34;;;;;;;7.00;3.80;;;;;;;13.14;55.16;100102.76;108074;1253;59215;-56
2023/11/03 08:36:02;;;;;;;7.40;3.80;;;;;;;13.16;55.10;100097.09;106024;1257;59138;-53
2023/11/03 08:38:31;;;;;;;7.80;3.90;;;;;;;13.19;54.97;100089.77;105407;1257;63791;-55
2023/11/03 08:40:59;;;;;;;8.00;4.30;;;;;;;13.22;54.85;100081.47;105944;1256;60546;-54
2023/11/03 08:43:26;;;;;;;8.30;3.70;;;;;;;13.24;54.60;100080.55;105817;1254;62651;-54
2023/11/03 08:45:54;;;;;;;8.80;3.80;;;;;;;13.26;54.28;100078.30;106975;1253;60442;-55
2023/11/03 08:48:21;;;;;;;7.00;3.80;;;;;;;13.26;53.95;100078.77;105618;1257;60491;-55
2023/11/03 08:50:49;;;;;;;7.90;4.50;;;;;;;13.26;53.84;100081.19;106204;1253;64852;-55
2023/11/03 08:53:18;;;;;;;7.10;3.60;;;;;;;13.26;53.68;100076.48;105676;1254;61385;-55
2023/11/03 08:55:46;;;;;;;8.10;4.20;;;;;;;13.25;53.21;100076.03;105796;1256;63678;-57
2023/11/03 08:58:13;;;;;;;7.10;4.20;;;;;;;13.24;52.87;100071.95;105107;1253;60473;-54
2023/11/03 09:00:54;;;;;;;6.80;3.70;;;;;;;13.22;52.84;100067.52;105119;1254;60552;-54
2023/11/03 09:03:22;;;;;;;9.00;4.20;;;;;;;13.21;52.72;100064.62;106469;1257;65032;-55
2023/11/03 09:05:50;;;;;;;7.00;4.20;;;;;;;13.23;52.58;100064.96;105309;1253;64502;-56
2023/11/03 09:08:18;;;;;;;6.30;4.10;;;;;;;13.26;52.33;100057.70;105948;1254;63771;-55
2023/11/03 09:10:45;;;;;;;6.80;3.70;;;;;;;13.27;52.41;100055.83;105362;1254;60451;-55
2023/11/03 09:13:15;;;;;;;8.20;4.50;;;;;;;13.29;52.50;100051.84;105591;1253;61117;-53
2023/11/03 09:17:27;;;;;;;9.60;4.40;;;;;;;13.14;52.94;100046.09;104057;1291;601629;-94
2023/11/03 09:19:58;;;;;;;8.40;4.30;;;;;;;13.46;51.96;100045.52;106131;1267;61685;-94
2023/11/03 09:22:28;;;;;;;12.60;4.90;;;;;;;13.52;51.79;100044.23;106581;1267;59831;-91
2023/11/03 09:25:06;;;;;;;7.90;4.40;;;;;;;13.57;51.71;100042.70;106799;1260;65910;-90
2023/11/03 09:27:38;;;;;;;7.30;4.20;;;;;;;13.60;51.53;100041.39;106941;1261;62450;-92
2023/11/03 09:30:10;;;;;;;7.00;4.20;;;;;;;13.62;51.29;100036.50;102467;1263;3365159;-54
2023/11/03 09:32:39;;;;;;;6.50;3.80;;;;;;;13.67;51.31;100035.75;108978;1256;57235;-56
2023/11/03 09:35:07;;;;;;;9.10;4.50;;;;;;;13.71;51.20;100028.73;108909;1254;62429;-55
2023/11/03 09:37:35;;;;;;;6.50;4.00;;;;;;;13.75;51.13;100021.64;106259;1259;62065;-52
2023/11/03 09:40:03;;;;;;;7.00;4.00;;;;;;;13.80;50.93;100019.83;106086;1256;60385;-53
2023/11/03 09:42:31;;;;;;;7.70;3.70;;;;;;;13.85;50.69;100022.13;107111;1255;62473;-55
2023/11/03 09:44:59;;;;;;;7.00;4.30;;;;;;;13.91;51.10;100018.30;105647;1256;59775;-51
2023/11/03 09:47:27;;;;;;;6.90;3.90;;;;;;;13.98;51.10;100014.45;107368;1254;60989;-55
2023/11/03 09:49:58;;;;;;;6.40;3.70;;;;;;;14.04;50.68;100010.71;105161;1255;64328;-55
2023/11/03 09:52:26;;;;;;;8.20;4.00;;;;;;;14.07;50.48;100009.29;105278;1258;61657;-53
2023/11/03 09:54:54;;;;;;;8.10;4.30;;;;;;;14.11;50.32;100009.95;105083;1254;63442;-54
2023/11/03 09:57:23;;;;;;;7.70;4.20;;;;;;;14.17;50.40;100007.60;105285;1259;60540;-60
2023/11/03 09:59:50;;;;;;;6.80;4.00;;;;;;;14.24;50.43;100000.90;105012;1254;59717;-56
2023/11/03 10:02:19;;;;;;;6.50;3.70;;;;;;;14.31;50.13;99999.89;105977;1257;73855;-56
2023/11/03 10:04:47;;;;;;;7.40;3.80;;;;;;;14.36;50.30;100000.08;108992;1254;60403;-55
2023/11/03 10:07:16;;;;;;;8.70;4.20;;;;;;;14.43;50.36;99997.04;108943;1256;66345;-52
2023/11/03 10:09:44;;;;;;;6.50;3.50;;;;;;;14.50;49.99;99994.36;109006;1255;57480;-53
2023/11/03 10:12:15;;;;;;;7.30;4.30;;;;;;;14.55;49.77;99993.40;105653;1254;59558;-56
2023/11/03 10:14:46;;;;;;;8.10;4.30;;;;;;;14.58;49.59;99989.33;105844;1254;64148;-55
2023/11/03 10:17:14;;;;;;;6.40;3.20;;;;;;;14.62;49.48;99990.33;105878;1256;62440;-55
2023/11/03 10:19:42;;;;;;;7.40;3.80;;;;;;;14.66;49.23;99995.56;106067;1257;62635;-54
2023/11/03 10:22:09;;;;;;;7.80;3.50;;;;;;;14.70;49.34;99991.38;105550;1256;59619;-55
2023/11/03 10:24:38;;;;;;;6.00;3.50;;;;;;;14.75;49.36;99992.45;105181;1257;59734;-56
2023/11/03 10:27:06;;;;;;;7.20;3.20;;;;;;;14.79;49.03;99990.21;105760;1257;63261;-56
2023/11/03 10:29:34;;;;;;;6.90;4.10;;;;;;;14.84;48.77;99984.04;105321;1259;60227;-56
2023/11/03 10:32:02;;;;;;;6.50;3.60;;;;;;;14.87;48.58;99977.23;105061;1260;62615;-56
2023/11/03 10:34:30;;;;;;;7.50;4.00;;;;;;;14.88;48.58;99976.41;106076;1257;60980;-53
2023/11/03 10:36:57;;;;;;;6.70;3.60;;;;;;;14.89;48.78;99970.48;105099;1256;59702;-56
2023/11/03 10:39:25;;;;;;;6.70;3.90;;;;;;;14.92;48.71;99970.29;107627;1257;64804;-56
2023/11/03 10:41:55;;;;;;;7.70;4.00;;;;;;;14.96;48.60;99967.80;105422;1255;72756;-54
2023/11/03 10:44:23;;;;;;;6.90;3.80;;;;;;;14.97;48.60;99960.02;105173;1259;64101;-55
2023/11/03 10:46:58;;;;;;;6.80;4.10;;;;;;;14.98;48.51;99954.13;105959;1256;59726;-56
2023/11/03 10:49:29;;;;;;;7.50;4.10;;;;;;;14.99;48.59;99954.52;105204;1257;60459;-58
2023/11/03 10:52:13;;;;;;;7.80;4.00;;;;;;;15.04;48.79;99954.40;105737;1262;63013;-60
2023/11/03 10:55:02;;;;;;;9.40;3.90;;;;;;;15.10;48.62;99957.98;108910;1258;63330;-56
2023/11/03 10:57:31;;;;;;;6.80;4.10;;;;;;;15.15;48.34;99949.12;108756;1255;62886;-58
2023/11/03 11:00:23;;;;;;;8.10;4.60;;;;;;;15.21;48.33;99941.64;108912;1257;57382;-55
2023/11/03 11:02:59;;;;;;;8.30;5.00;;;;;;;15.27;48.30;99934.66;108929;1257;57478;-57
2023/11/03 11:05:44;;;;;;;8.20;4.50;;;;;;;15.33;48.34;99938.64;106686;1257;65841;-59
2023/11/03 11:08:12;;;;;;;8.60;4.80;;;;;;;15.39;48.30;99943.38;108928;1257;63878;-55
2023/11/03 11:10:41;;;;;;;8.20;5.20;;;;;;;15.46;48.18;99943.42;106214;1256;63725;-55
2023/11/03 11:13:15;;;;;;;9.80;6.10;;;;;;;15.50;48.02;99938.68;105376;1262;59717;-55
2023/11/03 11:16:04;;;;;;;9.20;5.90;;;;;;;15.54;48.26;99933.46;105415;1257;59777;-58
2023/11/03 11:18:33;;;;;;;9.90;6.10;;;;;;;15.59;48.34;99935.60;106040;1257;64566;-55
2023/11/03 11:21:10;;;;;;;12.00;6.80;;;;;;;15.66;48.19;99935.30;105578;1257;60385;-52
2023/11/03 11:23:39;;;;;;;9.20;6.10;;;;;;;15.68;48.06;99927.20;105669;1257;64562;-50
2023/11/03 11:26:16;;;;;;;11.70;6.60;;;;;;;15.73;47.93;99925.08;104987;1256;59919;-50
2023/11/03 11:29:01;;;;;;;9.30;6.00;;;;;;;15.76;47.60;99924.73;105832;1258;59750;-54
2023/11/03 11:31:29;;;;;;;12.90;6.90;;;;;;;15.78;47.71;99921.73;105018;1256;64788;-53